Terminal Aerodrome Forecast
Issued by NWS

Current Version | Previous Version | Text Only | Print | Product List | Glossary On
Versions: 1 2 3 4 5 6 7 8 9 10 11 12 13
000
FTUS42 TJSJ 120545
TAFJBQ
TAF
TJBQ 120545Z 1206/1306 12004KT P6SM FEW025 FEW050
     FM121400 08015KT P6SM SCT040
     FM122300 09008KT P6SM SCT025 SCT050
      AMD NOT SKED TIL 121100=

USA.gov is the U.S. government's official web portal to all federal, state and local government web resources and services.